KASX

Details ICAO KASX
Name JOHN F KENNEDY MEM
Region United States
Timezone America/Chicago (UTC-5.0)
Plans Departing 15
Arriving 35
Stats Elevation 826 ft / 252 m (AMSL)
Location 46.548844° -90.918492°
Runways 2
Magnetic Variation 2.004° W
Sunrise 2018-05-22 10:23:35 UTC / 2018-05-22 05:23:35 Local
Sunset 2018-05-23 01:40:00 UTC / 2018-05-22 20:40:00 Local
Advertisement - Login to hide

Runways

ID Width Length Bearing (true) Bearing (mag) Surface Threshold Offset Overrun Length
02 100 ft / 30 m 5,200 ft / 1,585 m 20.73° 22.73° Asphalt 0 ft / 0 m 0 ft / 0 m
13 75 ft / 23 m 3,493 ft / 1,065 m 130.61° 132.61° Asphalt 0 ft / 0 m 0 ft / 0 m
20 100 ft / 30 m 5,200 ft / 1,585 m 200.73° 202.73° Asphalt 0 ft / 0 m 0 ft / 0 m
31 75 ft / 23 m 3,493 ft / 1,065 m 310.61° 312.61° Asphalt 0 ft / 0 m 0 ft / 0 m

Map

Weather


0- 5 10 15 20 25 30 35+ Temperature / ° C

Clouds and Precipitation
Forecast for 2018-05-22 06:00 UTC. Updated 3 hours ago

Ground ~20,000 ft ~40,000 ft Winds

METAR

KASX 220753Z AUTO 18003KT 10SM FEW070 BKN085 BKN110 09/06 A3001 RMK AO2 SLP166 T00890061

TAF

Not found

Frequencies

Recorded 126.77 MHz ASOS
Approach 126.45 MHz MINNEAPOLIS APP/DEP
Unicom 122.80 MHz CTAF/UNICOM
Warning: Do not use this data for real-world aviation or navigation. No guarantee of current accuracy is given.